»·PEaware :: CFEGG CYYJ-KPSC

CFEGG :: CYYJ-KPSC

FLIGHT INFORMATION

Flight Status: Arrived
Operator: Unknown
More flights by this operator :: More flights under this callsign
Pilot: Alex K. (14822)
Aircraft: LET KUNOVICE L-410 TURBOLET
(L410)
More flights by this aircraft type
Origin: CYYJ Victoria Intl
Canada
Destination: KPSC Tri-Cities
United States
More flights between these airports :: More routes between these airports
Route: DISCO V495 SEA V4 SUNED
File this flight plan on PilotEdge
Remarks:
Altitude:
(Current/Filed)
15,000ft
Speed:
(Current/Filed)
220kts
Departed: 19-Aug-18 10:50 AM
Arrived: 19-Aug-18 12:20 PM
Distance/Time
Traveled:
226nm/1:30
Distance/Time
To Go:
Arrived

Flight Plot

Page will automatically refresh every two minutes.

Flight plan parsing failed; only flown route is shown


Map Options




Map Legend


Flown Route
Filed Route
Departure Airport
Arrival Airport
Navaid (VOR, NDB)
Fix

Horizontal Profiles

Position Reports

Time Latitude Longitude Heading Altitude Ground
Speed
19-Aug-18 10:37 48.641583 -123.419171 264 53ft 0kts
19-Aug-18 10:38 48.641583 -123.419171 264 53ft 0kts
19-Aug-18 10:39 48.641583 -123.419171 264 53ft 0kts
19-Aug-18 10:40 48.641583 -123.419171 264 53ft 0kts
19-Aug-18 10:41 48.641583 -123.419172 264 53ft 0kts
19-Aug-18 10:42 48.641583 -123.419172 264 53ft 0kts
19-Aug-18 10:43 48.641583 -123.419172 264 53ft 0kts
19-Aug-18 10:44 48.641583 -123.419172 264 53ft 0kts
19-Aug-18 10:45 48.641583 -123.419172 264 53ft 0kts
19-Aug-18 10:46 48.641583 -123.419172 264 53ft 0kts
19-Aug-18 10:47 48.641583 -123.419172 264 53ft 0kts
19-Aug-18 10:48 48.641583 -123.419172 265 53ft 0kts
19-Aug-18 10:49 48.641501 -123.420339 284 57ft 8kts
19-Aug-18 10:50 48.641320 -123.424843 299 69ft 11kts
19-Aug-18 10:51 48.660064 -123.429567 69 1253ft 108kts
19-Aug-18 10:52 48.631496 -123.406425 156 2210ft 175kts
19-Aug-18 10:53 48.588583 -123.366717 146 3450ft 179kts
19-Aug-18 10:54 48.552983 -123.331009 145 4871ft 163kts
19-Aug-18 10:55 48.517037 -123.294952 145 6434ft 152kts
19-Aug-18 10:56 48.483179 -123.261050 144 8003ft 143kts
19-Aug-18 10:57 48.451296 -123.229167 144 9483ft 139kts
19-Aug-18 10:58 48.417036 -123.194957 144 10507ft 157kts
19-Aug-18 10:59 48.378753 -123.158479 146 11522ft 167kts
19-Aug-18 11:00 48.339749 -123.122644 146 12506ft 167kts
19-Aug-18 11:01 48.300352 -123.086513 146 13501ft 165kts
19-Aug-18 11:02 48.261503 -123.050954 146 14495ft 162kts
19-Aug-18 11:03 48.222535 -123.015306 146 15111ft 179kts
19-Aug-18 11:04 48.178180 -122.974869 147 15107ft 191kts
19-Aug-18 11:05 48.132642 -122.933443 147 15111ft 193kts
19-Aug-18 11:06 48.091771 -122.896330 147 15115ft 194kts
19-Aug-18 11:07 48.047167 -122.855864 149 15117ft 194kts
19-Aug-18 11:08 48.002109 -122.815154 149 15117ft 194kts
19-Aug-18 11:09 47.957457 -122.774853 149 15110ft 194kts
19-Aug-18 11:10 47.913468 -122.735226 149 15102ft 195kts
19-Aug-18 11:11 47.875295 -122.700904 149 15096ft 195kts
19-Aug-18 11:12 47.831062 -122.661208 149 15090ft 195kts
19-Aug-18 11:13 47.786827 -122.621589 149 15088ft 195kts
19-Aug-18 11:14 47.741507 -122.581080 149 15084ft 195kts
19-Aug-18 11:15 47.696124 -122.540598 149 15080ft 195kts
19-Aug-18 11:16 47.649681 -122.499254 149 15076ft 195kts
19-Aug-18 11:17 47.603381 -122.458125 149 15075ft 195kts
19-Aug-18 11:18 47.558313 -122.418174 149 15073ft 195kts
19-Aug-18 11:19 47.513029 -122.378113 149 15072ft 195kts
19-Aug-18 11:20 47.469869 -122.340007 149 15072ft 195kts
19-Aug-18 11:21 47.428619 -122.292591 126 15074ft 195kts
19-Aug-18 11:22 47.398194 -122.226566 124 15068ft 196kts
19-Aug-18 11:23 47.368035 -122.159796 124 15064ft 196kts
19-Aug-18 11:24 47.337890 -122.093040 124 15064ft 196kts
19-Aug-18 11:25 47.307725 -122.026374 124 15066ft 195kts
19-Aug-18 11:26 47.277580 -121.959914 124 15067ft 195kts
19-Aug-18 11:27 47.247287 -121.893290 124 15069ft 195kts
19-Aug-18 11:28 47.217008 -121.826852 124 15068ft 196kts
19-Aug-18 11:29 47.186675 -121.760461 124 15066ft 196kts
19-Aug-18 11:30 47.156459 -121.694484 124 15066ft 196kts
19-Aug-18 11:31 47.126022 -121.628179 124 15067ft 195kts
19-Aug-18 11:32 47.095624 -121.562124 124 15068ft 195kts
19-Aug-18 11:33 47.065159 -121.496076 124 15070ft 195kts
19-Aug-18 11:34 47.034657 -121.430102 124 15072ft 195kts
19-Aug-18 11:35 47.004181 -121.364323 125 15069ft 195kts
19-Aug-18 11:36 46.974099 -121.299577 126 15066ft 193kts
19-Aug-18 11:37 46.943946 -121.234824 126 15063ft 191kts
19-Aug-18 11:38 46.914545 -121.171851 126 15061ft 190kts
19-Aug-18 11:39 46.886862 -121.112641 127 15064ft 189kts
19-Aug-18 11:40 46.858721 -121.052634 127 15060ft 190kts
19-Aug-18 11:41 46.829285 -120.989997 127 15053ft 192kts
19-Aug-18 11:42 46.801494 -120.930970 127 15047ft 193kts
19-Aug-18 11:43 46.771343 -120.867072 127 15040ft 193kts
19-Aug-18 11:44 46.740887 -120.802677 127 15033ft 194kts
19-Aug-18 11:45 46.710485 -120.738548 127 15027ft 193kts
19-Aug-18 11:46 46.680182 -120.674772 127 15027ft 193kts
19-Aug-18 11:47 46.649897 -120.611182 127 15027ft 193kts
19-Aug-18 11:48 46.620070 -120.548693 126 15027ft 193kts
19-Aug-18 11:49 46.590075 -120.485993 127 15027ft 193kts
19-Aug-18 11:50 46.559742 -120.426241 131 15027ft 193kts
19-Aug-18 11:51 46.525935 -120.366099 131 15027ft 193kts
19-Aug-18 11:52 46.492288 -120.306571 131 15026ft 192kts
19-Aug-18 11:53 46.461121 -120.251566 131 15026ft 192kts
19-Aug-18 11:54 46.426243 -120.190176 131 14667ft 207kts
19-Aug-18 11:55 46.389761 -120.126084 131 14065ft 213kts
19-Aug-18 11:56 46.351983 -120.059825 129 13582ft 213kts
19-Aug-18 11:57 46.326884 -119.982088 114 13146ft 214kts
19-Aug-18 11:58 46.304076 -119.906137 114 12764ft 213kts
19-Aug-18 11:59 46.281146 -119.829644 113 12410ft 212kts
19-Aug-18 12:00 46.257975 -119.752548 113 11899ft 207kts
19-Aug-18 12:01 46.235616 -119.678350 113 11207ft 203kts
19-Aug-18 12:02 46.213269 -119.604429 113 10512ft 202kts
19-Aug-18 12:03 46.190964 -119.530869 113 9817ft 202kts
19-Aug-18 12:04 46.168709 -119.457670 113 9126ft 201kts
19-Aug-18 12:05 46.147625 -119.388565 113 8339ft 179kts
19-Aug-18 12:06 46.130262 -119.331765 113 7796ft 171kts
19-Aug-18 12:07 46.112034 -119.272277 113 7220ft 168kts
19-Aug-18 12:08 46.094290 -119.214508 112 6655ft 166kts
19-Aug-18 12:09 46.075839 -119.154577 112 6068ft 166kts
19-Aug-18 12:10 46.056834 -119.092959 114 5474ft 173kts
19-Aug-18 12:11 46.046079 -119.028224 76 4883ft 174kts
19-Aug-18 12:12 46.063238 -118.963758 57 4287ft 172kts
19-Aug-18 12:13 46.095390 -118.916606 1 3669ft 164kts
19-Aug-18 12:14 46.129418 -118.953654 315 3065ft 159kts
19-Aug-18 12:15 46.162898 -118.994706 322 2472ft 158kts
19-Aug-18 12:16 46.189857 -119.025556 323 1988ft 83kts
19-Aug-18 12:17 46.206680 -119.044763 324 1514ft 73kts
19-Aug-18 12:18 46.223308 -119.063569 324 1296ft 75kts
19-Aug-18 12:19 46.238496 -119.081575 323 954ft 70kts
19-Aug-18 12:20 46.253142 -119.099799 318 585ft 70kts
19-Aug-18 12:21 46.262459 -119.111616 73 410ft 9kts
19-Aug-18 12:22 46.263458 -119.105217 121 410ft 10kts

Navigation Log

Ident Type
Flight plan parsing failed, navigation log unavailable